createdAt,value
2018-06-29T00:03:07.205Z,22.40
2018-06-29T00:08:10.677Z,22.30
2018-06-29T00:13:15.720Z,22.30
2018-06-29T00:18:25.413Z,22.20
2018-06-29T00:23:46.900Z,22.30
2018-06-29T00:28:50.262Z,22.30
2018-06-29T00:33:53.645Z,22.30
2018-06-29T00:38:59.020Z,22.20
2018-06-29T00:44:02.413Z,22.30
2018-06-29T00:49:06.877Z,22.30
2018-06-29T00:54:10.319Z,22.20
2018-06-29T00:59:13.867Z,22.20
2018-06-29T01:04:17.335Z,22.30
2018-06-29T01:09:20.778Z,22.30
2018-06-29T01:14:24.142Z,22.30
2018-06-29T01:19:27.634Z,22.20
2018-06-29T01:24:32.098Z,22.20
2018-06-29T01:29:36.063Z,22.10
2018-06-29T01:34:39.718Z,22.00
2018-06-29T01:39:43.142Z,21.80
2018-06-29T01:44:47.317Z,21.60
2018-06-29T01:49:50.719Z,21.60
2018-06-29T01:54:54.444Z,21.60
2018-06-29T01:59:58.030Z,21.60
2018-06-29T02:05:01.451Z,21.70
2018-06-29T02:10:05.131Z,21.70
2018-06-29T02:15:12.433Z,21.70
2018-06-29T02:20:16.879Z,21.60
2018-06-29T02:25:20.326Z,21.50
2018-06-29T02:30:23.882Z,21.50
2018-06-29T02:35:27.253Z,21.50
2018-06-29T02:40:30.754Z,21.30
2018-06-29T02:45:34.237Z,21.30
2018-06-29T02:50:37.718Z,21.30
2018-06-29T02:55:41.858Z,21.40
2018-06-29T03:00:47.209Z,21.40
2018-06-29T03:05:50.649Z,21.50
2018-06-29T03:10:54.126Z,21.40
2018-06-29T03:15:58.046Z,21.50
2018-06-29T03:21:01.511Z,21.30
2018-06-29T03:26:04.989Z,21.40
2018-06-29T03:31:10.159Z,21.40
2018-06-29T03:36:13.629Z,21.50
2018-06-29T03:41:17.336Z,21.50
2018-06-29T03:46:20.870Z,21.40
2018-06-29T03:51:25.103Z,21.50
2018-06-29T03:56:28.765Z,21.40
2018-06-29T04:01:32.400Z,21.30
2018-06-29T04:06:36.463Z,21.10
2018-06-29T04:11:41.351Z,21.20
2018-06-29T04:16:44.917Z,21.20
2018-06-29T04:21:49.091Z,21.10
2018-06-29T04:26:52.630Z,21.20
2018-06-29T04:31:56.160Z,21.20
2018-06-29T04:37:01.544Z,21.30
2018-06-29T04:42:06.857Z,21.30
2018-06-29T04:47:10.262Z,21.20
2018-06-29T04:52:13.725Z,21.30
2018-06-29T04:57:18.081Z,21.30
2018-06-29T05:02:21.576Z,21.40
2018-06-29T05:07:25.432Z,21.40
2018-06-29T05:12:28.987Z,21.50
2018-06-29T05:17:32.660Z,21.40
2018-06-29T05:22:36.127Z,21.40
2018-06-29T05:27:39.717Z,21.40
2018-06-29T05:32:43.337Z,21.50
2018-06-29T05:37:46.791Z,21.40
2018-06-29T05:42:51.274Z,21.40
2018-06-29T05:47:55.330Z,21.70
2018-06-29T05:53:07.494Z,21.80
2018-06-29T05:58:11.175Z,21.80
2018-06-29T06:03:14.843Z,22.00
2018-06-29T06:08:18.365Z,22.10
2018-06-29T06:13:22.774Z,22.60
2018-06-29T06:18:26.233Z,22.90
2018-06-29T06:23:29.714Z,23.20
2018-06-29T06:28:34.509Z,23.30
2018-06-29T06:33:37.879Z,23.20
2018-06-29T06:38:42.568Z,23.40
2018-06-29T06:43:46.191Z,23.40
2018-06-29T06:48:50.725Z,23.80
2018-06-29T06:53:54.345Z,24.20
2018-06-29T06:58:57.788Z,24.50
2018-06-29T07:04:01.376Z,24.70
2018-06-29T07:09:08.765Z,24.70
2018-06-29T07:14:12.201Z,24.90
2018-06-29T07:19:19.039Z,24.90
2018-06-29T07:24:23.180Z,25.40
2018-06-29T07:29:27.123Z,25.50
2018-06-29T07:34:30.987Z,25.60
2018-06-29T07:39:35.182Z,25.90
2018-06-29T07:44:38.762Z,26.30
2018-06-29T07:49:42.316Z,26.50
2018-06-29T07:54:45.784Z,26.40
2018-06-29T07:59:49.925Z,26.40
2018-06-29T08:04:53.562Z,26.60
2018-06-29T08:09:58.831Z,27.10
2018-06-29T08:15:08.220Z,27.40
2018-06-29T08:20:17.876Z,27.50
2018-06-29T08:25:24.052Z,27.50
2018-06-29T08:30:29.355Z,28.10
2018-06-29T08:35:35.371Z,28.60
2018-06-29T08:40:38.813Z,29.00
2018-06-29T08:45:43.374Z,29.10
2018-06-29T08:50:47.678Z,28.90
2018-06-29T08:55:51.603Z,28.70
2018-06-29T09:00:55.092Z,28.70
2018-06-29T09:05:59.422Z,28.40
2018-06-29T09:11:02.955Z,28.90
2018-06-29T09:16:07.343Z,29.30
2018-06-29T09:21:17.179Z,29.50
2018-06-29T09:26:22.783Z,29.70
2018-06-29T09:31:29.816Z,29.80
2018-06-29T09:36:33.282Z,30.10
2018-06-29T09:41:37.792Z,30.40
2018-06-29T09:46:45.703Z,30.50
2018-06-29T09:51:54.449Z,30.90
2018-06-29T09:56:58.748Z,31.20
2018-06-29T10:02:05.703Z,31.90
2018-06-29T10:07:11.877Z,31.80
2018-06-29T10:12:20.197Z,31.50
2018-06-29T10:17:25.760Z,31.60
2018-06-29T10:22:29.411Z,31.70
2018-06-29T10:27:39.835Z,31.80
2018-06-29T10:39:09.381Z,32.40
2018-06-29T10:44:13.789Z,33.00
2018-06-29T10:49:19.781Z,33.00
2018-06-29T10:54:50.536Z,33.20
2018-06-29T10:59:58.377Z,33.30
2018-06-29T11:05:10.647Z,33.80
2018-06-29T11:10:14.232Z,34.00
2018-06-29T11:15:17.684Z,33.90
2018-06-29T11:20:21.454Z,33.90
2018-06-29T11:25:25.069Z,34.00
2018-06-29T11:30:39.867Z,34.20
2018-06-29T11:35:46.869Z,34.50
2018-06-29T11:40:54.492Z,34.50
2018-06-29T11:46:03.653Z,34.90
2018-06-29T11:51:19.513Z,34.50
2018-06-29T11:56:33.234Z,34.70
2018-06-29T12:07:16.555Z,34.10
2018-06-29T12:12:22.220Z,33.60
2018-06-29T12:17:30.392Z,34.20
2018-06-29T12:22:37.929Z,34.50
2018-06-29T12:28:00.280Z,35.20
2018-06-29T12:33:07.551Z,35.40
2018-06-29T12:38:16.780Z,35.30
2018-06-29T12:43:22.039Z,35.60
2018-06-29T12:48:27.915Z,35.70
2018-06-29T12:59:07.339Z,35.70
2018-06-29T13:04:15.288Z,35.50
2018-06-29T13:09:20.440Z,35.60
2018-06-29T13:14:30.044Z,35.70
2018-06-29T13:19:34.999Z,35.60
2018-06-29T13:24:48.656Z,35.50
2018-06-29T13:29:55.199Z,35.30
2018-06-29T13:35:01.788Z,35.90
2018-06-29T13:40:10.337Z,36.00
2018-06-29T13:45:14.005Z,35.80
2018-06-29T13:50:18.519Z,35.60
2018-06-29T13:55:22.436Z,36.00
2018-06-29T14:00:26.094Z,35.50
2018-06-29T14:05:29.830Z,35.20
2018-06-29T14:10:36.170Z,35.50
2018-06-29T14:15:42.458Z,35.60
2018-06-29T14:20:46.027Z,35.80
2018-06-29T14:25:49.798Z,35.30
2018-06-29T14:30:53.514Z,34.90
2018-06-29T14:35:58.026Z,34.50
2018-06-29T14:41:01.860Z,34.40
2018-06-29T14:46:05.561Z,34.70
2018-06-29T14:51:09.339Z,35.30
2018-06-29T14:56:14.341Z,35.10
2018-06-29T15:01:18.013Z,34.70
2018-06-29T15:06:21.935Z,34.90
2018-06-29T15:11:27.617Z,35.20
2018-06-29T15:16:31.217Z,35.70
2018-06-29T15:21:34.810Z,36.10
2018-06-29T15:26:38.415Z,36.00
2018-06-29T15:31:41.891Z,36.20
2018-06-29T15:36:46.443Z,35.80
2018-06-29T15:41:50.234Z,35.00
2018-06-29T15:46:54.063Z,34.50
2018-06-29T15:51:57.620Z,34.00
2018-06-29T15:57:01.329Z,33.80
2018-06-29T16:02:04.925Z,34.40
2018-06-29T16:07:08.662Z,34.70
2018-06-29T16:12:12.327Z,35.00
2018-06-29T16:17:18.055Z,35.30
2018-06-29T16:22:21.782Z,35.40
2018-06-29T16:27:27.385Z,34.80
2018-06-29T16:32:31.127Z,34.90
2018-06-29T16:37:35.586Z,35.10
2018-06-29T16:42:43.244Z,35.10
2018-06-29T16:47:48.582Z,34.70
2018-06-29T16:52:52.283Z,35.00
2018-06-29T16:57:56.409Z,35.60
2018-06-29T17:03:01.105Z,36.10
2018-06-29T17:08:05.383Z,36.20
2018-06-29T17:13:09.871Z,36.00
2018-06-29T17:18:13.444Z,36.90
2018-06-29T17:23:17.031Z,37.40
2018-06-29T17:28:22.836Z,38.30
2018-06-29T17:33:32.050Z,39.20
2018-06-29T17:38:32.713Z,39.00
2018-06-29T17:43:38.565Z,39.50
2018-06-29T17:48:44.105Z,39.20
2018-06-29T17:53:53.292Z,39.50
2018-06-29T17:58:57.612Z,40.20
2018-06-29T18:04:04.961Z,39.40
2018-06-29T18:09:13.390Z,39.70
2018-06-29T18:14:20.430Z,39.60
2018-06-29T18:19:24.558Z,39.70
2018-06-29T18:24:31.143Z,39.70
2018-06-29T18:29:41.786Z,39.20
2018-06-29T18:34:49.097Z,37.80
2018-06-29T18:39:55.916Z,35.80
2018-06-29T18:45:05.982Z,34.20
2018-06-29T18:50:16.353Z,33.10
2018-06-29T18:55:22.266Z,32.20
2018-06-29T19:00:25.884Z,31.50
2018-06-29T19:05:30.459Z,30.90
2018-06-29T19:10:33.986Z,30.20
2018-06-29T19:15:37.375Z,29.80
2018-06-29T19:20:42.662Z,29.40
2018-06-29T19:25:50.113Z,28.90
2018-06-29T19:30:54.607Z,28.50
2018-06-29T19:36:02.926Z,28.20
2018-06-29T19:41:09.116Z,27.80
2018-06-29T19:46:12.727Z,27.40
2018-06-29T19:51:16.150Z,27.10
2018-06-29T19:56:19.911Z,26.90
2018-06-29T20:01:24.279Z,26.70
2018-06-29T20:06:29.820Z,26.40
2018-06-29T20:11:34.468Z,26.20
2018-06-29T20:16:38.604Z,25.90
2018-06-29T20:21:43.078Z,25.60
2018-06-29T20:26:46.702Z,25.20
2018-06-29T20:31:50.138Z,24.90
2018-06-29T20:36:53.635Z,24.80
2018-06-29T20:41:57.148Z,24.70
2018-06-29T20:47:00.620Z,24.50
2018-06-29T20:52:04.263Z,24.40
2018-06-29T20:57:07.733Z,24.20
2018-06-29T21:02:11.310Z,23.90
2018-06-29T21:07:14.833Z,23.70
2018-06-29T21:12:18.561Z,23.50
2018-06-29T21:17:22.027Z,23.30
2018-06-29T21:22:26.555Z,23.30
2018-06-29T21:27:30.229Z,23.20
2018-06-29T21:32:33.782Z,23.10
2018-06-29T21:37:37.203Z,23.00
2018-06-29T21:42:53.393Z,22.90
2018-06-29T21:48:19.532Z,22.80
2018-06-29T21:53:23.034Z,22.80
2018-06-29T21:58:26.623Z,22.70
2018-06-29T22:03:30.096Z,22.60
2018-06-29T22:08:33.672Z,22.60
2018-06-29T22:13:37.170Z,22.50
2018-06-29T22:18:42.657Z,22.40
2018-06-29T22:23:47.800Z,22.20
2018-06-29T22:28:52.724Z,22.20
2018-06-29T22:33:56.412Z,22.20
2018-06-29T22:38:59.957Z,22.10
2018-06-29T22:44:03.494Z,22.00
2018-06-29T22:49:07.086Z,22.00
2018-06-29T22:54:10.945Z,21.90
2018-06-29T22:59:14.408Z,21.90
2018-06-29T23:04:18.174Z,21.90
2018-06-29T23:09:22.574Z,21.70
2018-06-29T23:14:27.024Z,21.50
2018-06-29T23:19:30.810Z,21.40
2018-06-29T23:24:34.758Z,21.20
2018-06-29T23:29:38.395Z,21.00
2018-06-29T23:34:42.228Z,20.80
2018-06-29T23:39:45.708Z,20.70
2018-06-29T23:44:55.294Z,20.70
2018-06-29T23:49:59.466Z,20.60
2018-06-29T23:55:04.158Z,20.60
